• Join FlightAware (Why Join?)
  • Login
  • US Flag 
11:51PM EDT


 

Airport Tracker/Info


-or-


 

Live Flight TrackerFlight Track Log ✈ KAP927 ✈ 15-May-2013 ✈ KOGS - KALB

Flight Track Log - Related Links

Times and Time Zones

All times are in EDT time to prevent confusion due to time zone crossing. See the KAP927 flight status page for this flight to view local times or setup timezone preferences in your user account.

Time Position Orientation Groundspeed Altitude Reporting Facility
EDT Latitude Longitude Course Direction KTS MPH feet Rate Location/Type
07:02AM 44.5281 -75.2939 148° Southeast 155 178 4,800  Level Boston Center
07:03AM 44.4975 -75.2633 144° Southeast 155 178 5,300 600 Climbing Boston Center
07:04AM 44.4628 -75.2356 150° Southeast 150 173 6,000 600 Climbing Boston Center
07:05AM 44.4281 -75.2078 150° Southeast 145 167 6,600 600 Climbing Boston Center
07:06AM 44.3936 -75.1742 145° Southeast 145 167 7,200 420 Climbing Boston Center
07:07AM 44.4720 -75.2785 149° Southeast  Level Estimated
07:07AM 44.3567 -75.1406 147° Southeast 145 167 7,500  Level Boston Center
07:08AM 44.4366 -75.2481 148° Southeast  Level FlightAware Approximate
07:08AM 44.3139 -75.1067 150° Southeast 163 188 7,500  Level Boston Center
07:09AM 44.2708 -75.0669 147° Southeast 174 200 7,500 -60 Level Boston Center
07:10AM 44.2300 -75.0333 149° Southeast 181 208 7,400  Descending Boston Center
07:11AM 44.1892 -74.9997 149° Southeast 176 203 7,500  Climbing Boston Center
07:12AM 44.1483 -74.9631 147° Southeast 176 203 7,500  Level Boston Center
07:13AM 44.1072 -74.9294 150° Southeast 176 203 7,500  Level Boston Center
07:14AM 44.0642 -74.8961 151° Southeast 176 203 7,500  Level Boston Center
07:15AM 44.0233 -74.8597 147° Southeast 176 203 7,500 -60 Level Boston Center
07:16AM 43.9844 -74.8264 148° Southeast 176 203 7,400 -60 Descending Boston Center
07:17AM 43.9414 -74.7931 151° Southeast 176 203 7,400 60 Level Boston Center
07:18AM 43.9025 -74.7597 148° Southeast 176 203 7,600 60 Climbing Boston Center
07:19AM 43.8614 -74.7236 148° Southeast 176 203 7,600  Level Boston Center
07:20AM 43.8225 -74.6875 146° Southeast 176 203 7,600  Level Boston Center
07:21AM 43.7794 -74.6542 151° Southeast 176 203 7,600  Level Boston Center
07:22AM 43.7383 -74.6183 148° Southeast 176 203 7,600  Level Boston Center
07:23AM 43.6975 -74.5853 150° Southeast 176 203 7,600  Level Boston Center
07:24AM 43.6564 -74.5522 150° Southeast 176 203 7,600  Level Boston Center
07:25AM 43.6153 -74.5164 148° Southeast 176 203 7,600  Level Boston Center
07:26AM 43.5742 -74.4806 148° Southeast 176 203 7,600  Level Boston Center
07:27AM 43.5333 -74.4447 148° Southeast 176 203 7,600 -120 Level Boston Center
07:28AM 43.4922 -74.4119 150° Southeast 176 203 7,400 -120 Descending Boston Center
07:29AM 43.4489 -74.3733 147° Southeast 176 203 7,400  Level Boston Center
07:30AM 43.4161 -74.3494 152° Southeast 175 201 7,500 60 Climbing Boston Center
07:30AM 43.3956 -74.3344 152° Southeast 174 200 7,500 60 Level Boston Center
07:31AM 43.3667 -74.3050 143° Southeast 176 203 7,600 60 Climbing Boston Center
07:31AM 43.3564 -74.3019 168° South 173 199 7,600 -120 Level Boston Center
07:32AM 43.3256 -74.2725 145° Southeast 171 197 7,500 -300 Descending Boston Center
07:32AM 43.3069 -74.2606 155° Southeast 176 203 7,300 -540 Descending Boston Center
07:33AM 43.2825 -74.2369 145° Southeast 182 209 7,000 -420 Descending Boston Center
07:34AM 43.2494 -74.2103 150° Southeast 192 221 6,800 -300 Descending Boston Center
07:34AM 43.2372 -74.2014 152° Southeast 182 209 6,700 -360 Descending Boston Center
07:35AM 43.2103 -74.1806 151° Southeast 180 207 6,500 -300 Descending Boston Center
07:35AM 43.1939 -74.1658 147° Southeast 177 204 6,400 -420 Descending Boston Center
07:36AM 43.1672 -74.1453 151° Southeast 173 199 6,100 -540 Descending Boston Center
07:36AM 43.1528 -74.1333 149° Southeast 177 204 5,900 -420 Descending Boston Center
07:37AM 43.1258 -74.1128 151° Southeast 173 199 5,700 -420 Descending Boston Center
07:37AM 43.1114 -74.1011 149° Southeast 177 204 5,500 -420 Descending Boston Center
07:38AM 43.0847 -74.0803 150° Southeast 169 194 5,300 -300 Descending Boston Center
07:38AM 43.0703 -74.0686 149° Southeast 172 198 5,200 -420 Descending Boston Center
07:39AM 43.0456 -74.0508 152° Southeast 164 189 4,900 -420 Descending Boston Center
07:39AM 43.0311 -74.0364 144° Southeast 172 198 4,800 -360 Descending Boston Center
07:40AM 43.0083 -74.0217 155° Southeast 165 190 4,600 -420 Descending Boston Center
07:40AM 42.9900 -74.0042 145° Southeast 172 198 4,400 -420 Descending Boston Center
07:41AM 42.9692 -73.9894 153° Southeast 166 191 4,200 -300 Descending Boston Center
07:41AM 42.9506 -73.9747 150° Southeast 167 192 4,100 -300 Descending Boston Center
07:42AM 42.9281 -73.9628 159° South 164 189 3,900 -300 Descending Boston Center
07:42AM 42.9114 -73.9453 142° Southeast 167 192 3,800 -300 Descending Boston Center
07:43AM 42.8847 -73.9250 151° Southeast 161 185 3,600 -420 Descending Boston Center
07:43AM 42.8703 -73.9189 163° South 161 185 3,400 -540 Descending Boston Center
07:44AM 42.8433 -73.9042 158° South 158 182 3,100 4,080 Descending Boston Center
07:44AM 42.8703 -73.9133 346° North 149 171 7,500 -540 Climbing Boston Center
07:45AM 42.8100 -73.8892 164° South 153 176 2,700  Descending Boston Center
07:45AM 42.8106 -73.8608 88° East 149 171 7,500 3,240 Climbing Boston Center
07:46AM 42.7692 -73.8258 148° Southeast 149 171 7,500 -3,720 Level Boston Center
07:47AM 42.7394 -73.8706 228° Southwest 115 132 1,800 -4,140 Descending Boston Center
07:48AM 42.7211 -73.8389 128° Southeast 107 123 1,100 -720 Descending Boston Center
07:50AM 42.7333 -73.8000 160° South  Level FlightAware Approximate
07:57AM 42.7491 -73.8020 160° South  Level Estimated
07:58AM 42.7491 -73.8020 160° South  Level Estimated
07:59AM 42.7491 -73.8020 160° South  Level Estimated